Time;durP1;ratioP1;P1;durP2;ratioP2;P2;SDS_P1;SDS_P2;PMS_P1;PMS_P2;Temp;Humidity;BMP_temperature;BMP_pressure;BME280_temperature;BME280_humidity;BME280_pressure;Samples;Min_cycle;Max_cycle;Signal;HPM_P1;HPM_P2
2022/05/14 00:01:37;;;;;;;5.97;4.60;;;22.30;1.00;;;;;;5054972;28;20025;-44
2022/05/14 00:04:03;;;;;;;9.05;4.85;;;22.30;1.00;;;;;;5054520;28;20032;-43
2022/05/14 00:06:30;;;;;;;7.38;5.20;;;22.00;1.00;;;;;;5053921;28;20025;-45
2022/05/14 00:09:01;;;;;;;6.78;4.88;;;22.00;1.00;;;;;;5051223;28;20032;-43
2022/05/14 00:14:12;;;;;;;7.30;4.82;;;22.10;1.00;;;;;;5052667;28;20126;-44
2022/05/14 00:16:38;;;;;;;8.07;5.00;;;21.90;1.00;;;;;;5054580;28;20025;-42
2022/05/14 00:19:06;;;;;;;9.10;5.00;;;22.10;1.00;;;;;;5053010;28;20027;-43
2022/05/14 00:21:32;;;;;;;5.13;4.10;;;21.90;1.00;;;;;;5054615;28;20028;-43
2022/05/14 00:23:58;;;;;;;6.03;4.75;;;22.10;1.00;;;;;;5053883;28;20509;-43
2022/05/14 00:26:24;;;;;;;8.98;5.10;;;21.90;1.00;;;;;;5040342;28;20421;-43
2022/05/14 00:28:50;;;;;;;7.93;5.40;;;21.80;1.00;;;;;;5053271;28;20086;-44
2022/05/14 00:31:16;;;;;;;10.25;5.78;;;21.90;1.00;;;;;;5052968;28;20025;-42
2022/05/14 00:33:42;;;;;;;8.85;5.35;;;22.00;1.00;;;;;;5053035;28;20407;-42
2022/05/14 00:36:08;;;;;;;8.48;4.78;;;21.90;1.00;;;;;;5053987;28;20029;-45
2022/05/14 00:38:34;;;;;;;8.10;4.82;;;22.00;1.00;;;;;;5054457;28;20067;-42
2022/05/14 00:41:03;;;;;;;9.23;5.65;;;22.00;1.00;;;;;;5053200;28;20462;-44
2022/05/14 00:43:30;;;;;;;6.10;4.65;;;22.00;1.00;;;;;;5054367;28;20184;-43
2022/05/14 00:46:06;;;;;;;11.00;5.22;;;22.10;1.00;;;;;;5053075;28;20096;-42
2022/05/14 00:48:40;;;;;;;7.40;5.00;;;22.10;1.00;;;;;;5053371;28;20477;-43
2022/05/14 00:51:11;;;;;;;9.98;5.00;;;22.00;1.00;;;;;;5052287;28;20395;-42
2022/05/14 00:53:39;;;;;;;7.47;5.05;;;22.10;1.00;;;;;;5053072;28;20036;-43
2022/05/14 00:56:28;;;;;;;8.77;5.05;;;22.10;1.00;;;;;;5052031;28;20114;-43
2022/05/14 00:59:13;;;;;;;9.40;5.47;;;22.10;1.00;;;;;;5052916;28;20032;-44
2022/05/14 01:01:40;;;;;;;7.30;5.07;;;22.10;1.00;;;;;;5046538;28;20034;-42
2022/05/14 01:04:07;;;;;;;9.15;5.30;;;22.00;1.00;;;;;;5052712;28;20033;-45
2022/05/14 01:06:35;;;;;;;7.38;5.22;;;22.00;1.00;;;;;;5069065;28;20040;-43
2022/05/14 01:09:04;;;;;;;7.13;5.72;;;21.80;1.00;;;;;;5052685;28;20045;-42
2022/05/14 01:11:33;;;;;;;8.82;5.90;;;21.70;1.00;;;;;;5053629;28;20021;-43
2022/05/14 01:13:59;;;;;;;10.20;5.57;;;21.70;1.00;;;;;;5052431;28;20109;-46
2022/05/14 01:16:24;;;;;;;9.45;6.13;;;21.70;1.00;;;;;;5053499;28;20124;-43
2022/05/14 01:18:50;;;;;;;6.85;5.55;;;21.60;1.00;;;;;;5052342;28;20021;-44
2022/05/14 01:21:48;;;;;;;7.90;6.05;;;21.60;1.00;;;;;;5052347;28;20033;-44
2022/05/14 01:27:25;;;;;;;9.93;5.75;;;21.40;1.00;;;;;;5052613;28;20402;-43
2022/05/14 01:29:51;;;;;;;7.85;5.45;;;21.50;1.00;;;;;;5051743;28;20033;-43
2022/05/14 01:32:17;;;;;;;7.88;5.20;;;21.50;1.00;;;;;;5052361;28;20090;-44
2022/05/14 01:34:44;;;;;;;7.13;5.72;;;21.30;1.00;;;;;;5050316;28;20033;-43
2022/05/14 01:37:10;;;;;;;9.18;5.90;;;21.30;1.00;;;;;;5052574;28;20056;-44
2022/05/14 01:39:37;;;;;;;9.23;6.60;;;21.40;1.00;;;;;;5067180;28;20057;-43
2022/05/14 01:42:04;;;;;;;7.60;5.65;;;21.40;1.00;;;;;;5052981;28;20472;-43
2022/05/14 01:44:29;;;;;;;6.97;5.13;;;21.10;1.00;;;;;;5052103;28;20029;-43
2022/05/14 01:46:55;;;;;;;7.68;5.50;;;21.40;1.00;;;;;;5051869;28;20103;-43
2022/05/14 01:49:21;;;;;;;9.27;5.38;;;21.40;1.00;;;;;;5052104;28;20082;-43
2022/05/14 01:51:47;;;;;;;9.45;5.10;;;21.20;1.00;;;;;;5051952;28;20048;-43
2022/05/14 01:54:13;;;;;;;8.38;5.40;;;21.50;1.00;;;;;;5051207;28;20021;-44
2022/05/14 01:56:38;;;;;;;7.03;4.63;;;21.60;1.00;;;;;;5052663;28;20033;-45
2022/05/14 01:59:04;;;;;;;9.85;6.07;;;21.60;1.00;;;;;;5052655;28;20482;-44
2022/05/14 02:01:33;;;;;;;9.38;6.50;;;21.50;1.00;;;;;;5051579;28;20110;-43
2022/05/14 02:04:03;;;;;;;10.60;5.82;;;21.30;1.00;;;;;;5052370;28;20090;-43
2022/05/14 02:06:30;;;;;;;7.57;5.47;;;21.40;1.00;;;;;;5051795;28;20128;-44
2022/05/14 02:08:57;;;;;;;6.90;5.22;;;21.50;1.00;;;;;;5052096;28;20075;-45
2022/05/14 02:11:32;;;;;;;9.43;5.72;;;21.50;1.00;;;;;;5051634;28;20025;-43
2022/05/14 02:13:58;;;;;;;7.97;5.65;;;21.50;1.00;;;;;;5050815;28;20031;-45
2022/05/14 02:16:23;;;;;;;7.20;6.13;;;21.60;1.00;;;;;;5051417;28;20137;-45
2022/05/14 02:18:49;;;;;;;8.60;4.78;;;21.50;1.00;;;;;;5052337;28;20075;-43
2022/05/14 02:21:18;;;;;;;7.57;5.25;;;21.50;1.00;;;;;;5050182;28;20036;-44
2022/05/14 02:23:44;;;;;;;6.05;5.32;;;21.30;1.00;;;;;;5051871;28;20037;-44
2022/05/14 02:26:11;;;;;;;9.57;5.38;;;21.50;1.00;;;;;;5051458;28;20083;-44
2022/05/14 02:28:38;;;;;;;9.73;4.85;;;21.30;1.00;;;;;;5052086;28;20021;-43
2022/05/14 02:31:04;;;;;;;7.03;5.60;;;21.20;1.00;;;;;;5051377;28;20036;-43
2022/05/14 02:33:30;;;;;;;10.30;5.43;;;21.20;1.00;;;;;;5052140;28;20376;-43
2022/05/14 02:35:57;;;;;;;7.68;5.88;;;21.30;1.00;;;;;;5051111;28;20040;-44
2022/05/14 02:38:22;;;;;;;8.60;5.35;;;21.30;1.00;;;;;;5052092;28;20063;-44
2022/05/14 02:40:48;;;;;;;7.22;5.63;;;21.30;1.00;;;;;;5049772;28;20052;-42
2022/05/14 02:43:14;;;;;;;9.45;6.05;;;21.20;1.00;;;;;;5052027;28;20498;-44
2022/05/14 02:45:40;;;;;;;12.50;5.85;;;21.30;1.00;;;;;;5050663;28;20021;-42
2022/05/14 02:48:06;;;;;;;9.13;5.32;;;21.40;1.00;;;;;;5051747;28;20041;-43
2022/05/14 02:50:32;;;;;;;11.02;6.60;;;21.40;1.00;;;;;;5048526;28;20087;-43
2022/05/14 02:52:59;;;;;;;7.95;5.35;;;21.50;1.00;;;;;;5051806;28;20017;-42
2022/05/14 02:55:24;;;;;;;7.82;6.00;;;21.40;1.00;;;;;;5051013;28;20457;-44
2022/05/14 02:57:50;;;;;;;8.30;5.95;;;21.40;1.00;;;;;;5051796;28;20025;-43
2022/05/14 03:00:18;;;;;;;6.40;5.35;;;21.20;1.00;;;;;;5051202;28;20045;-43
2022/05/14 03:02:45;;;;;;;9.50;5.78;;;21.30;1.00;;;;;;5051404;28;20044;-42
2022/05/14 03:05:13;;;;;;;6.53;5.60;;;21.20;1.00;;;;;;5051073;28;20029;-44
2022/05/14 03:07:40;;;;;;;7.55;5.90;;;21.10;1.00;;;;;;5051690;28;20107;-43
2022/05/14 03:10:06;;;;;;;10.23;6.20;;;21.20;1.00;;;;;;5050962;28;20101;-42
2022/05/14 03:12:32;;;;;;;7.05;5.65;;;21.10;1.00;;;;;;5051667;28;20096;-42
2022/05/14 03:14:57;;;;;;;8.93;5.57;;;21.10;1.00;;;;;;5051282;28;20108;-43
2022/05/14 03:17:23;;;;;;;7.60;5.38;;;21.20;1.00;;;;;;5051633;28;20501;-44
2022/05/14 03:19:50;;;;;;;9.93;6.07;;;21.20;1.00;;;;;;5050025;28;20029;-42
2022/05/14 03:22:16;;;;;;;10.45;5.63;;;21.20;1.00;;;;;;5051763;28;20032;-43
2022/05/14 03:24:41;;;;;;;8.00;5.10;;;21.30;1.00;;;;;;5051118;28;20032;-42
2022/05/14 03:27:07;;;;;;;9.15;5.55;;;21.20;1.00;;;;;;5051512;28;20021;-42
2022/05/14 03:29:34;;;;;;;7.97;5.22;;;21.10;1.00;;;;;;5051658;28;20025;-42
2022/05/14 03:31:59;;;;;;;7.25;5.55;;;21.10;1.00;;;;;;5050632;28;20033;-43
2022/05/14 03:34:26;;;;;;;6.28;5.22;;;21.00;1.00;;;;;;5050131;28;20029;-43
2022/05/14 03:36:52;;;;;;;8.20;5.15;;;21.10;1.00;;;;;;5050802;28;20447;-43
2022/05/14 03:39:19;;;;;;;8.80;5.25;;;21.00;1.00;;;;;;5051792;28;20075;-43
2022/05/14 03:41:45;;;;;;;8.80;5.05;;;21.00;1.00;;;;;;5050553;28;20491;-43
2022/05/14 03:44:12;;;;;;;9.20;5.38;;;21.00;1.00;;;;;;5051191;28;20052;-44
2022/05/14 03:46:38;;;;;;;8.02;5.18;;;21.00;1.00;;;;;;5048620;28;20474;-43
2022/05/14 03:49:04;;;;;;;10.18;5.90;;;20.90;1.00;;;;;;5052043;28;20112;-43
2022/05/14 03:51:30;;;;;;;11.77;5.78;;;20.90;1.00;;;;;;5054160;28;20039;-43
2022/05/14 03:53:57;;;;;;;9.55;5.70;;;21.00;1.00;;;;;;5054936;28;20052;-43
2022/05/14 03:56:23;;;;;;;10.68;6.20;;;20.80;1.00;;;;;;5054274;28;20040;-43
2022/05/14 03:58:48;;;;;;;6.78;5.95;;;20.80;1.00;;;;;;5054986;28;20033;-43
2022/05/14 04:01:14;;;;;;;11.45;6.38;;;20.70;1.00;;;;;;5054087;28;20065;-44
2022/05/14 04:03:40;;;;;;;8.82;6.28;;;20.80;1.00;;;;;;5054314;28;20125;-43
2022/05/14 04:06:06;;;;;;;7.07;6.35;;;20.80;1.00;;;;;;5054044;28;20029;-43
2022/05/14 04:08:33;;;;;;;11.25;6.70;;;20.70;1.00;;;;;;5054868;28;20021;-43
2022/05/14 04:10:59;;;;;;;9.10;6.22;;;20.60;1.00;;;;;;5053955;28;20029;-44
2022/05/14 04:13:26;;;;;;;8.90;6.10;;;20.60;1.00;;;;;;5054559;28;20471;-43
2022/05/14 04:15:52;;;;;;;6.75;5.70;;;20.80;1.00;;;;;;5053816;28;20361;-43
2022/05/14 04:18:24;;;;;;;9.88;5.82;;;20.70;1.00;;;;;;5054630;28;20367;-43
2022/05/14 04:20:54;;;;;;;8.38;5.63;;;20.80;1.00;;;;;;5053276;28;20029;-46
2022/05/14 04:23:20;;;;;;;9.23;6.15;;;20.90;1.00;;;;;;5054309;28;20032;-43
2022/05/14 04:25:51;;;;;;;6.97;4.68;;;20.70;1.00;;;;;;5053622;28;20025;-43
2022/05/14 04:28:18;;;;;;;9.27;5.45;;;20.60;1.00;;;;;;5053572;28;20093;-43
2022/05/14 04:30:45;;;;;;;9.45;5.38;;;20.80;1.00;;;;;;5053418;28;20025;-43
2022/05/14 04:33:11;;;;;;;7.70;5.03;;;20.90;1.00;;;;;;5053954;28;20033;-43
2022/05/14 04:35:37;;;;;;;8.05;4.97;;;20.70;1.00;;;;;;5053732;28;20041;-43
2022/05/14 04:38:03;;;;;;;7.63;5.15;;;20.70;1.00;;;;;;5054236;28;20075;-43
2022/05/14 04:40:29;;;;;;;7.18;5.47;;;20.80;1.00;;;;;;5053402;28;20386;-43
2022/05/14 04:42:54;;;;;;;9.63;6.20;;;20.80;1.00;;;;;;5052623;28;20544;-45
2022/05/14 04:45:20;;;;;;;7.43;5.22;;;20.90;1.00;;;;;;5052489;28;20044;-42
2022/05/14 04:47:46;;;;;;;10.30;5.30;;;21.00;1.00;;;;;;5053665;28;20041;-43
2022/05/14 04:50:13;;;;;;;6.85;4.72;;;20.90;1.00;;;;;;5046094;28;20028;-43
2022/05/14 04:52:38;;;;;;;9.52;5.07;;;20.90;1.00;;;;;;5057042;28;20017;-43
2022/05/14 04:55:05;;;;;;;10.07;5.25;;;20.80;1.00;;;;;;5049606;28;20036;-43
2022/05/14 04:57:31;;;;;;;8.68;6.10;;;20.70;1.00;;;;;;5052939;28;20021;-43
2022/05/14 04:59:56;;;;;;;9.10;6.85;;;20.70;1.00;;;;;;5052445;28;20470;-42
2022/05/14 05:05:07;;;;;;;10.68;8.30;;;20.90;1.00;;;;;;5052519;28;20200;-42
2022/05/14 05:07:33;;;;;;;13.55;8.27;;;20.80;1.00;;;;;;5052970;28;20029;-43
2022/05/14 05:09:58;;;;;;;12.25;8.50;;;20.40;1.00;;;;;;5068728;28;20040;-44
2022/05/14 05:12:24;;;;;;;16.27;8.40;;;20.60;1.00;;;;;;5052936;28;20037;-43
2022/05/14 05:14:50;;;;;;;10.02;7.25;;;20.80;1.00;;;;;;5053598;28;20536;-43
2022/05/14 05:17:15;;;;;;;12.35;7.55;;;20.70;1.00;;;;;;5052382;28;20033;-43
2022/05/14 05:19:41;;;;;;;10.02;6.97;;;20.90;1.00;;;;;;5052303;28;20036;-44
2022/05/14 05:22:06;;;;;;;7.97;6.57;;;20.80;1.00;;;;;;5038362;28;20107;-44
2022/05/14 05:24:38;;;;;;;11.27;7.22;;;20.90;1.00;;;;;;5033220;28;20037;-43
2022/05/14 05:27:04;;;;;;;9.18;6.30;;;20.80;1.00;;;;;;5049010;28;20029;-43
2022/05/14 05:29:31;;;;;;;7.07;6.25;;;20.90;1.00;;;;;;5053277;28;20478;-43
2022/05/14 05:31:56;;;;;;;8.43;6.07;;;20.80;1.00;;;;;;5051739;28;20037;-43
2022/05/14 05:34:22;;;;;;;11.35;6.90;;;20.70;1.00;;;;;;5053032;28;20035;-43
2022/05/14 05:36:47;;;;;;;7.43;6.15;;;20.80;1.00;;;;;;5052460;28;20036;-43
2022/05/14 05:39:13;;;;;;;10.55;6.95;;;20.80;1.00;;;;;;5053094;28;20532;-44
2022/05/14 05:41:39;;;;;;;8.32;6.10;;;20.90;1.00;;;;;;5052351;28;20025;-43
2022/05/14 05:44:05;;;;;;;10.50;6.43;;;20.70;1.00;;;;;;5052476;28;20439;-44
2022/05/14 05:46:35;;;;;;;11.57;6.53;;;20.80;1.00;;;;;;5050384;28;20021;-43
2022/05/14 05:49:01;;;;;;;9.35;6.95;;;20.80;1.00;;;;;;5051301;28;20085;-43
2022/05/14 05:51:26;;;;;;;11.80;6.80;;;20.80;1.00;;;;;;5052048;28;20131;-44
2022/05/14 05:56:55;;;;;;;8.38;5.97;;;20.80;1.00;;;;;;5051834;28;20040;-43
2022/05/14 05:59:21;;;;;;;7.57;5.90;;;20.40;1.00;;;;;;5052719;28;20025;-45
2022/05/14 06:01:53;;;;;;;8.73;5.82;;;20.60;1.00;;;;;;5051869;28;20025;-44
2022/05/14 06:04:20;;;;;;;7.85;5.68;;;20.60;1.00;;;;;;5051823;28;20044;-43
2022/05/14 06:06:46;;;;;;;9.48;6.03;;;20.70;1.00;;;;;;5051988;28;20355;-43
2022/05/14 06:09:18;;;;;;;12.05;6.72;;;20.60;1.00;;;;;;5052548;28;20021;-44
2022/05/14 06:11:44;;;;;;;9.45;6.07;;;20.50;1.00;;;;;;5050913;28;20032;-43
2022/05/14 06:14:10;;;;;;;9.40;5.53;;;20.40;1.00;;;;;;5052116;28;20108;-43
2022/05/14 06:16:37;;;;;;;9.65;5.13;;;20.50;1.00;;;;;;5050793;28;20516;-44
2022/05/14 06:19:03;;;;;;;10.07;5.90;;;20.50;1.00;;;;;;5052486;28;20025;-45
2022/05/14 06:21:29;;;;;;;7.72;5.85;;;20.70;1.00;;;;;;5051961;28;20059;-43
2022/05/14 06:23:55;;;;;;;10.75;5.40;;;20.70;1.00;;;;;;5052155;28;20053;-44
2022/05/14 06:26:21;;;;;;;11.07;5.25;;;20.80;1.00;;;;;;5051709;28;20532;-43
2022/05/14 06:28:47;;;;;;;11.07;5.25;;;20.70;1.00;;;;;;5052253;28;20115;-45
2022/05/14 06:31:16;;;;;;;8.77;5.13;;;20.80;1.00;;;;;;5050706;28;20104;-44
2022/05/14 06:33:51;;;;;;;8.77;6.07;;;20.70;1.00;;;;;;5052117;28;20044;-44
2022/05/14 06:36:16;;;;;;;;;;;20.70;1.00;;;;;;5051968;28;20029;-44
2022/05/14 06:38:42;;;;;;;8.55;4.65;;;20.70;1.00;;;;;;5052023;28;19912;-45
2022/05/14 06:41:11;;;;;;;9.95;5.03;;;20.60;1.00;;;;;;5051666;28;20074;-47
2022/05/14 06:43:37;;;;;;;9.07;4.72;;;20.70;1.00;;;;;;5052011;28;20083;-44
2022/05/14 06:46:03;;;;;;;8.23;4.93;;;20.80;1.00;;;;;;5050310;28;20029;-43
2022/05/14 06:48:29;;;;;;;8.02;4.90;;;20.80;1.00;;;;;;5052044;28;20453;-44
2022/05/14 06:50:58;;;;;;;9.95;4.72;;;20.90;1.00;;;;;;5051137;28;20040;-44
2022/05/14 06:53:24;;;;;;;11.65;4.75;;;20.90;1.00;;;;;;5052184;28;20036;-44
2022/05/14 06:55:54;;;;;;;7.20;4.45;;;20.90;1.00;;;;;;5049924;28;20025;-44
2022/05/14 06:58:23;;;;;;;10.05;4.75;;;21.00;1.00;;;;;;5051797;28;20366;-43
2022/05/14 07:00:50;;;;;;;7.53;4.15;;;20.90;1.00;;;;;;5051138;28;20033;-45
2022/05/14 07:08:44;;;;;;;6.43;4.25;;;21.00;1.00;;;;;;5052162;28;20040;-43
2022/05/14 07:11:10;;;;;;;6.35;4.20;;;21.10;1.00;;;;;;5050112;28;20017;-43
2022/05/14 07:13:37;;;;;;;10.55;4.80;;;21.10;1.00;;;;;;5051773;28;20157;-45
2022/05/14 07:16:03;;;;;;;4.97;4.13;;;21.10;1.00;;;;;;5050203;28;20588;-43
2022/05/14 07:18:29;;;;;;;9.18;4.20;;;21.30;1.00;;;;;;5051684;28;20021;-44
2022/05/14 07:20:55;;;;;;;8.98;4.53;;;21.30;1.00;;;;;;5050843;28;20028;-44
2022/05/14 07:23:21;;;;;;;10.85;4.57;;;21.30;1.00;;;;;;5054112;28;20123;-43
2022/05/14 07:29:12;;;;;;;8.45;4.70;;;21.40;1.00;;;;;;5049244;28;20114;-45
2022/05/14 07:31:38;;;;;;;12.20;5.55;;;21.30;1.00;;;;;;5053343;28;20053;-45
2022/05/14 07:34:04;;;;;;;8.43;4.72;;;21.40;1.00;;;;;;5055361;28;20070;-44
2022/05/14 07:36:33;;;;;;;7.00;4.03;;;21.50;1.00;;;;;;5054771;28;20037;-44
2022/05/14 07:39:02;;;;;;;8.82;4.72;;;21.50;1.00;;;;;;5055068;28;20119;-43
2022/05/14 07:41:29;;;;;;;8.48;4.05;;;21.60;1.00;;;;;;5054991;28;20037;-44
2022/05/14 07:43:57;;;;;;;6.55;4.38;;;21.60;1.00;;;;;;5054070;28;20041;-44
2022/05/14 07:46:30;;;;;;;6.93;4.05;;;21.60;1.00;;;;;;5054356;28;20494;-44
2022/05/14 07:48:58;;;;;;;9.35;4.53;;;21.60;1.00;;;;;;5069920;28;20499;-46
2022/05/14 07:51:25;;;;;;;9.63;3.92;;;21.70;1.00;;;;;;5070701;28;20025;-43
2022/05/14 07:53:52;;;;;;;8.10;4.22;;;21.70;1.00;;;;;;5053811;28;20024;-43
2022/05/14 07:56:17;;;;;;;8.18;4.15;;;21.80;1.00;;;;;;5055257;28;20099;-44
2022/05/14 07:58:43;;;;;;;7.95;3.90;;;21.90;1.00;;;;;;5054335;28;20479;-43
2022/05/14 08:01:10;;;;;;;8.38;4.88;;;21.90;1.00;;;;;;5040775;28;20112;-45
2022/05/14 08:03:36;;;;;;;8.85;4.57;;;21.90;1.00;;;;;;5051016;28;20498;-44
2022/05/14 08:06:01;;;;;;;8.57;4.72;;;21.90;1.00;;;;;;5053568;28;20031;-45
2022/05/14 08:08:27;;;;;;;6.05;3.88;;;22.00;1.00;;;;;;5053914;28;20474;-43
2022/05/14 08:10:55;;;;;;;7.18;4.15;;;22.00;1.00;;;;;;5054888;28;20425;-43
2022/05/14 08:13:22;;;;;;;12.63;5.10;;;22.00;1.00;;;;;;5053976;28;20127;-43
2022/05/14 08:15:50;;;;;;;10.18;4.68;;;22.10;1.00;;;;;;5054600;28;20021;-47
2022/05/14 08:18:16;;;;;;;11.40;4.65;;;22.10;1.00;;;;;;5069216;28;20372;-43
2022/05/14 08:20:44;;;;;;;8.32;4.90;;;22.10;1.00;;;;;;5055070;28;20052;-44
2022/05/14 08:25:57;;;;;;;7.00;3.63;;;22.30;1.00;;;;;;5054443;28;20035;-43
2022/05/14 08:28:23;;;;;;;8.80;4.45;;;22.30;1.00;;;;;;5053202;28;20032;-45
2022/05/14 08:30:48;;;;;;;7.10;5.03;;;22.30;1.00;;;;;;5054597;28;20025;-44
2022/05/14 08:33:14;;;;;;;10.30;4.82;;;22.40;1.00;;;;;;5068510;28;20029;-47
2022/05/14 08:35:40;;;;;;;8.10;5.07;;;22.40;1.00;;;;;;5053626;28;20419;-45
2022/05/14 08:38:09;;;;;;;7.88;4.80;;;22.50;1.00;;;;;;5053205;28;20077;-44
2022/05/14 08:40:37;;;;;;;8.18;4.22;;;22.60;1.00;;;;;;5054544;28;20418;-48
2022/05/14 08:43:09;;;;;;;9.32;5.10;;;22.70;1.00;;;;;;5052341;28;20052;-46
2022/05/14 08:45:38;;;;;;;8.85;4.15;;;22.70;1.00;;;;;;5055013;28;20024;-44
2022/05/14 08:48:30;;;;;;;9.35;5.15;;;22.70;1.00;;;;;;5053291;28;20565;-44
2022/05/14 08:51:03;;;;;;;8.00;5.38;;;22.70;1.00;;;;;;5054366;28;20017;-43
2022/05/14 08:53:32;;;;;;;12.73;6.03;;;22.80;1.00;;;;;;5053287;28;20521;-47
2022/05/14 08:56:18;;;;;;;9.85;5.78;;;22.80;1.00;;;;;;5053279;28;20474;-45
2022/05/14 08:58:53;;;;;;;7.60;6.03;;;22.90;1.00;;;;;;5055610;28;20472;-45
2022/05/14 09:01:24;;;;;;;6.97;5.80;;;22.90;1.00;;;;;;5052818;28;20021;-43
2022/05/14 09:03:49;;;;;;;10.48;6.10;;;22.90;1.00;;;;;;5053198;28;20410;-44
2022/05/14 09:06:15;;;;;;;11.45;5.90;;;23.00;1.00;;;;;;5069254;28;20035;-43
2022/05/14 09:08:41;;;;;;;8.48;5.18;;;23.10;1.00;;;;;;5053088;28;20040;-46
2022/05/14 09:14:37;;;;;;;11.15;5.95;;;23.20;1.00;;;;;;5053189;28;20090;-44
2022/05/14 09:17:07;;;;;;;8.85;6.00;;;23.20;1.00;;;;;;5053866;28;20376;-46
2022/05/14 09:19:43;;;;;;;12.05;6.05;;;23.20;1.00;;;;;;5053607;28;20039;-43
2022/05/14 09:22:33;;;;;;;9.40;5.60;;;23.20;1.00;;;;;;5052159;28;20032;-46
2022/05/14 09:25:05;;;;;;;8.43;6.65;;;23.20;1.00;;;;;;5033550;28;20067;-45
2022/05/14 09:27:51;;;;;;;15.93;7.47;;;23.30;1.00;;;;;;5049612;28;20103;-46
2022/05/14 09:30:36;;;;;;;11.80;6.75;;;23.30;1.00;;;;;;5053006;28;20021;-43
2022/05/14 09:33:04;;;;;;;8.85;6.70;;;23.30;1.00;;;;;;5052331;28;20083;-43
2022/05/14 09:35:34;;;;;;;8.95;7.63;;;23.30;1.00;;;;;;5053136;28;20021;-44
2022/05/14 09:38:12;;;;;;;9.70;7.80;;;23.40;1.00;;;;;;5051487;28;20047;-44
2022/05/14 09:40:38;;;;;;;12.13;6.75;;;23.50;1.00;;;;;;5052346;28;20033;-42
2022/05/14 09:43:24;;;;;;;12.75;6.80;;;23.50;1.00;;;;;;5050515;28;20039;-44
2022/05/14 09:46:03;;;;;;;12.75;6.70;;;23.60;1.00;;;;;;5048215;28;20036;-42
2022/05/14 09:48:35;;;;;;;13.13;5.88;;;23.60;1.00;;;;;;5066167;28;20550;-42
2022/05/14 09:51:09;;;;;;;9.43;5.93;;;23.70;1.00;;;;;;5052314;28;20393;-45
2022/05/14 09:53:41;;;;;;;7.70;6.18;;;23.70;1.00;;;;;;5051045;28;20097;-43
2022/05/14 09:56:09;;;;;;;10.27;6.32;;;23.70;1.00;;;;;;5052561;28;20528;-47
2022/05/14 09:58:53;;;;;;;13.45;6.68;;;23.80;1.00;;;;;;5051543;28;20375;-44
2022/05/14 10:01:31;;;;;;;10.93;5.70;;;23.90;1.00;;;;;;5052784;28;20021;-44
2022/05/14 10:04:34;;;;;;;6.68;5.63;;;24.00;1.00;;;;;;5051637;28;20124;-43
2022/05/14 10:07:19;;;;;;;10.15;5.53;;;23.90;1.00;;;;;;5052678;28;20140;-45
2022/05/14 10:10:12;;;;;;;10.52;5.97;;;24.00;1.00;;;;;;5051433;28;20036;-44
2022/05/14 10:12:48;;;;;;;9.57;5.88;;;24.10;1.00;;;;;;5052116;28;20025;-43
2022/05/14 10:15:56;;;;;;;12.38;7.05;;;24.20;1.00;;;;;;5032677;28;20022;-44
2022/05/14 10:18:52;;;;;;;9.88;5.47;;;24.30;1.00;;;;;;5028010;28;20033;-44
2022/05/14 10:21:34;;;;;;;6.68;6.03;;;24.30;1.00;;;;;;5052662;28;20100;-45
2022/05/14 10:27:54;;;;;;;9.23;6.43;;;24.40;1.00;;;;;;5029852;28;20124;-44
2022/05/14 10:30:25;;;;;;;9.95;5.68;;;24.50;1.00;;;;;;5010600;28;20050;-44
2022/05/14 10:33:03;;;;;;;17.92;6.32;;;24.60;1.00;;;;;;5035235;28;20041;-47
2022/05/14 10:35:45;;;;;;;9.82;6.03;;;24.60;1.00;;;;;;5052406;28;20028;-44
2022/05/14 10:38:19;;;;;;;10.57;6.50;;;24.60;1.00;;;;;;5049384;28;20026;-44
2022/05/14 10:40:47;;;;;;;;;;;24.80;1.00;;;;;;5051966;28;20029;-44
2022/05/14 10:43:48;;;;;;;11.20;6.45;;;24.70;1.00;;;;;;5051075;28;19975;-46
2022/05/14 10:46:19;;;;;;;12.13;6.50;;;24.90;1.00;;;;;;5052380;28;20021;-47
2022/05/14 10:49:08;;;;;;;10.02;6.30;;;24.90;1.00;;;;;;5050129;28;20057;-44
2022/05/14 10:51:42;;;;;;;8.68;6.45;;;25.00;1.00;;;;;;5052211;28;20025;-44
2022/05/14 10:54:16;;;;;;;7.93;7.05;;;25.20;1.00;;;;;;5050990;28;20029;-44
2022/05/14 10:56:57;;;;;;;11.32;6.75;;;25.20;1.00;;;;;;5052354;28;20025;-47
2022/05/14 10:59:37;;;;;;;13.98;5.90;;;25.20;1.00;;;;;;5056957;28;20121;-44
2022/05/14 11:02:12;;;;;;;8.10;6.22;;;25.30;1.00;;;;;;5057794;28;20478;-44
2022/05/14 11:04:41;;;;;;;10.32;5.50;;;25.40;1.00;;;;;;5037425;28;20071;-44
2022/05/14 11:07:08;;;;;;;14.70;6.70;;;25.60;1.00;;;;;;5044895;28;20075;-44
2022/05/14 11:09:34;;;;;;;14.60;6.55;;;25.70;1.00;;;;;;5057455;28;20501;-44
2022/05/14 11:12:03;;;;;;;10.30;6.63;;;25.90;1.00;;;;;;5058191;28;20093;-44
2022/05/14 11:14:38;;;;;;;9.52;5.65;;;26.00;1.00;;;;;;5058279;28;20029;-50
2022/05/14 11:17:19;;;;;;;10.23;6.18;;;26.00;1.00;;;;;;5058593;28;20021;-47
2022/05/14 11:19:45;;;;;;;11.30;6.15;;;26.00;1.00;;;;;;5057531;28;20041;-44
2022/05/14 11:22:20;;;;;;;8.43;5.93;;;26.20;1.00;;;;;;5058385;28;20048;-44
2022/05/14 11:24:46;;;;;;;7.80;5.90;;;26.20;1.00;;;;;;5057854;28;20487;-46
2022/05/14 11:27:23;;;;;;;11.50;6.13;;;26.20;1.00;;;;;;5058514;28;20491;-48
2022/05/14 11:29:55;;;;;;;7.85;5.90;;;26.30;1.00;;;;;;5057623;28;20032;-46
2022/05/14 11:32:23;;;;;;;10.88;6.18;;;26.40;1.00;;;;;;5058120;28;20331;-46
2022/05/14 11:34:58;;;;;;;8.73;5.70;;;26.50;1.00;;;;;;5057326;28;20024;-46
2022/05/14 11:37:34;;;;;;;9.82;5.80;;;26.80;1.00;;;;;;5057383;28;20025;-47
2022/05/14 11:40:23;;;;;;;9.45;6.00;;;27.10;1.00;;;;;;5057230;28;20029;-44
2022/05/14 11:42:51;;;;;;;9.80;5.65;;;27.40;1.00;;;;;;5058028;28;20033;-48
2022/05/14 11:45:28;;;;;;;12.15;6.22;;;27.60;1.00;;;;;;5057051;28;20474;-48
2022/05/14 11:48:17;;;;;;;10.15;6.05;;;27.70;1.00;;;;;;5050358;28;20136;-45
2022/05/14 11:51:07;;;;;;;6.97;6.28;;;28.10;1.00;;;;;;5038479;28;20036;-45
2022/05/14 11:53:45;;;;;;;15.50;5.93;;;28.40;1.00;;;;;;5041521;28;20078;-45
2022/05/14 11:56:20;;;;;;;9.98;6.10;;;28.80;1.00;;;;;;5058294;28;20097;-46
2022/05/14 11:58:55;;;;;;;15.48;6.07;;;29.10;1.00;;;;;;5057209;28;20478;-48
2022/05/14 12:01:30;;;;;;;7.55;5.45;;;29.30;1.00;;;;;;5058278;28;20228;-44
2022/05/14 12:03:59;;;;;;;;;;;29.90;1.00;;;;;;5057331;28;20115;-45
2022/05/14 12:06:37;;;;;;;10.70;6.63;;;30.10;1.00;;;;;;5055448;28;19916;-48
2022/05/14 12:09:33;;;;;;;7.63;5.60;;;30.80;1.00;;;;;;5054422;28;20086;-46
2022/05/14 12:12:26;;;;;;;23.40;6.70;;;31.30;1.00;;;;;;5055095;28;20099;-40
2022/05/14 12:14:52;;;;;;;13.98;6.13;;;31.40;1.00;;;;;;5053484;28;20036;-41
2022/05/14 12:17:21;;;;;;;11.23;6.35;;;31.50;1.00;;;;;;5054696;28;20021;-43
2022/05/14 12:19:54;;;;;;;28.52;8.52;;;32.10;1.00;;;;;;5053954;28;20029;-45
2022/05/14 12:22:23;;;;;;;12.05;5.68;;;32.50;1.00;;;;;;5054732;28;20097;-41
2022/05/14 12:25:05;;;;;;;14.35;7.03;;;32.70;1.00;;;;;;5053911;28;20064;-41
2022/05/14 12:27:32;;;;;;;10.23;5.72;;;32.60;1.00;;;;;;5070052;28;20025;-43
2022/05/14 12:30:00;;;;;;;11.60;6.10;;;31.90;1.00;;;;;;5053929;28;20099;-42
2022/05/14 12:35:25;;;;;;;8.65;5.13;;;32.00;1.00;;;;;;5049950;28;20148;-43
2022/05/14 12:37:55;;;;;;;7.80;5.40;;;32.10;1.00;;;;;;5054272;28;20021;-43
2022/05/14 12:40:27;;;;;;;8.60;5.20;;;32.50;1.00;;;;;;5053291;28;20037;-45
2022/05/14 12:42:54;;;;;;;8.43;6.05;;;33.50;1.00;;;;;;5054236;28;20585;-46
2022/05/14 12:45:31;;;;;;;6.65;5.40;;;34.40;1.00;;;;;;5053473;28;20033;-43
2022/05/14 12:48:01;;;;;;;5.80;4.93;;;35.80;1.00;;;;;;5052351;28;20041;-48
2022/05/14 12:50:30;;;;;;;6.05;4.70;;;38.40;1.00;;;;;;5053138;28;20035;-42
2022/05/14 12:53:06;;;;;;;7.38;4.97;;;39.70;1.00;;;;;;5054260;28;20037;-43
2022/05/14 12:55:36;;;;;;;7.00;5.00;;;39.60;1.00;;;;;;5053503;28;20103;-43
2022/05/14 12:58:04;;;;;;;6.78;5.97;;;40.10;1.00;;;;;;5054551;28;20033;-46
2022/05/14 13:00:33;;;;;;;6.40;5.18;;;39.90;1.00;;;;;;5052399;28;20079;-45
2022/05/14 13:03:19;;;;;;;7.30;5.70;;;39.50;1.00;;;;;;5053648;28;20475;-46
2022/05/14 13:05:54;;;;;;;6.28;5.05;;;37.50;1.00;;;;;;5052952;28;20102;-48
2022/05/14 13:08:23;;;;;;;5.30;4.80;;;35.90;1.00;;;;;;5053957;28;20052;-44
2022/05/14 13:11:11;;;;;;;7.18;5.00;;;35.40;1.00;;;;;;5053428;28;20056;-43
2022/05/14 13:13:43;;;;;;;9.75;5.35;;;34.90;1.00;;;;;;5050940;28;20490;-47
2022/05/14 13:16:17;;;;;;;4.82;4.47;;;34.70;1.00;;;;;;5053697;28;20040;-43
2022/05/14 13:18:50;;;;;;;5.80;5.30;;;34.50;1.00;;;;;;5053000;28;20070;-43
2022/05/14 13:21:25;;;;;;;5.22;4.55;;;35.30;1.00;;;;;;5068709;28;20024;-44
2022/05/14 13:23:58;;;;;;;10.52;5.35;;;36.30;1.00;;;;;;5052990;28;20044;-47
2022/05/14 13:26:40;;;;;;;;;;;37.20;1.00;;;;;;5052725;28;20120;-48
2022/05/14 13:29:23;;;;;;;6.32;4.43;;;37.80;1.00;;;;;;5051829;28;19958;-43
2022/05/14 13:31:51;;;;;;;6.20;4.40;;;38.40;1.00;;;;;;5053227;28;20021;-49
2022/05/14 13:37:18;;;;;;;5.25;4.57;;;38.20;1.00;;;;;;5052608;28;20509;-44
2022/05/14 13:39:54;;;;;;;9.05;4.82;;;36.70;1.00;;;;;;5052392;28;20025;-46
2022/05/14 13:42:29;;;;;;;5.35;4.38;;;35.90;1.00;;;;;;5048299;28;20036;-43
2022/05/14 13:45:16;;;;;;;9.32;4.57;;;35.30;1.00;;;;;;5042969;28;20026;-46
2022/05/14 13:47:51;;;;;;;6.72;4.20;;;34.70;1.00;;;;;;5044276;28;20056;-44